Time;durP1;ratioP1;P1;durP2;ratioP2;P2;SDS_P1;SDS_P2;PMS_P1;PMS_P2;Temp;Humidity;BMP_temperature;BMP_pressure;BME280_temperature;BME280_humidity;BME280_pressure;Samples;Min_cycle;Max_cycle;Signal;HPM_P1;HPM_P2
2022/09/15 00:00:51;;;;;;;;;;;;;;;20.63;100.00;97954.38;5071812;28;20044;-42
2022/09/15 00:03:17;;;;;;;;;;;;;;;20.68;100.00;97954.78;5074479;28;19920;-42
2022/09/15 00:05:42;;;;;;;;;;;;;;;20.48;100.00;97964.38;5071648;28;19923;-42
2022/09/15 00:08:07;;;;;;;;;;;;;;;19.16;100.00;97963.53;5073769;28;19927;-42
2022/09/15 00:10:33;;;;;;;;;;;;;;;20.22;100.00;97951.00;5072364;28;19924;-42
2022/09/15 00:12:58;;;;;;;;;;;;;;;20.38;100.00;97956.53;5073757;28;19927;-42
2022/09/15 00:15:23;;;;;;;;;;;;;;;20.32;100.00;97954.47;5071384;28;19924;-42
2022/09/15 00:17:49;;;;;;;;;;;;;;;20.32;100.00;97946.63;5070972;28;20384;-42
2022/09/15 00:20:15;;;;;;;;;;;;;;;20.38;100.00;97953.91;5071133;28;20060;-42
2022/09/15 00:22:41;;;;;;;;;;;;;;;20.36;100.00;97953.22;5071899;28;19942;-42
2022/09/15 00:25:06;;;;;;;;;;;;;;;20.24;100.00;97949.09;5070971;28;19921;-42
2022/09/15 00:27:32;;;;;;;;;;;;;;;19.95;100.00;97952.47;5053248;28;20377;-42
2022/09/15 00:29:57;;;;;;;;;;;;;;;20.05;100.00;97952.50;5071703;28;19916;-42
2022/09/15 00:32:22;;;;;;;;;;;;;;;20.22;100.00;97948.41;5072855;28;19922;-42
2022/09/15 00:34:48;;;;;;;;;;;;;;;20.35;100.00;97946.34;5073335;28;19916;-42
2022/09/15 00:37:14;;;;;;;;;;;;;;;20.26;100.00;97955.84;5069138;28;20261;-42
2022/09/15 00:39:39;;;;;;;;;;;;;;;20.18;100.00;97936.56;5053487;28;19920;-42
2022/09/15 00:42:04;;;;;;;;;;;;;;;20.17;100.00;97945.38;5072998;28;19961;-42
2022/09/15 00:44:35;;;;;;;;;;;;;;;20.15;100.00;97950.72;5071793;28;19924;-42
2022/09/15 00:47:01;;;;;;;;;;;;;;;19.83;100.00;97950.94;5071446;28;20396;-42
2022/09/15 00:49:28;;;;;;;;;;;;;;;20.04;100.00;97956.88;5070395;28;19941;-42
2022/09/15 00:51:57;;;;;;;;;;;;;;;19.92;100.00;97952.75;5072407;28;19943;-42
2022/09/15 00:54:29;;;;;;;;;;;;;;;19.76;100.00;97952.44;5071676;28;19955;-42
2022/09/15 00:56:55;;;;;;;;;;;;;;;19.65;100.00;97961.16;5071439;28;19920;-42
2022/09/15 00:59:21;;;;;;;;;;;;;;;19.70;100.00;97964.22;5051961;28;19927;-42
2022/09/15 01:01:46;;;;;;;;;;;;;;;19.69;100.00;97952.13;5053111;28;19965;-42
2022/09/15 01:04:12;;;;;;;;;;;;;;;19.80;100.00;97959.06;5053605;28;19920;-42
2022/09/15 01:06:42;;;;;;;;;;;;;;;19.90;100.00;97952.06;5071339;28;19930;-42
2022/09/15 01:09:12;;;;;;;;;;;;;;;19.74;100.00;97959.56;5071683;28;19920;-42
2022/09/15 01:11:37;;;;;;;;;;;;;;;19.51;100.00;97958.91;5070709;28;20443;-42
2022/09/15 01:14:03;;;;;;;;;;;;;;;19.67;100.00;97959.25;5035340;28;19927;-42
2022/09/15 01:16:40;;;;;;;;;;;;;;;19.47;100.00;97963.56;5071108;28;19920;-42
2022/09/15 01:19:08;;;;;;;;;;;;;;;19.82;100.00;97950.13;5071092;28;19920;-42
2022/09/15 01:21:41;;;;;;;;;;;;;;;19.73;100.00;97953.53;5072231;28;19916;-42
2022/09/15 01:24:06;;;;;;;;;;;;;;;19.77;100.00;97959.28;5053892;28;20779;-43
2022/09/15 01:26:32;;;;;;;;;;;;;;;19.85;100.00;97952.44;5071964;28;19920;-42
2022/09/15 01:29:05;;;;;;;;;;;;;;;19.75;100.00;97958.59;5072073;28;19931;-42
2022/09/15 01:33:02;;;;;;;;;;;;;;;19.75;100.00;97953.38;5056382;28;19963;-42
2022/09/15 01:34:23;;;;;;;;;;;;;;;19.26;100.00;97954.94;5075700;28;19920;-42
2022/09/15 01:36:51;;;;;;;;;;;;;;;19.56;100.00;97952.31;5038165;28;20698;-42
2022/09/15 01:39:21;;;;;;;;;;;;;;;19.68;100.00;97960.06;5056577;28;19927;-42
2022/09/15 01:41:48;;;;;;;;;;;;;;;19.79;100.00;97958.19;5057548;28;20003;-42
2022/09/15 01:44:30;;;;;;;;;;;;;;;19.71;100.00;97959.84;5055307;28;20494;-42
2022/09/15 01:46:57;;;;;;;;;;;;;;;19.57;100.00;97953.16;5059296;28;20331;-42
2022/09/15 01:49:24;;;;;;;;;;;;;;;19.63;100.00;97953.44;5075006;28;19931;-42
2022/09/15 01:51:50;;;;;;;;;;;;;;;19.57;100.00;97945.34;5054757;28;20031;-42
2022/09/15 01:54:15;;;;;;;;;;;;;;;19.67;100.00;97943.56;5075232;28;19920;-42
2022/09/15 01:56:41;;;;;;;;;;;;;;;19.34;100.00;97950.72;5045362;28;20006;-42
2022/09/15 01:59:07;;;;;;;;;;;;;;;19.63;100.00;97948.22;5075315;28;19920;-42
2022/09/15 02:01:39;;;;;;;;;;;;;;;19.71;100.00;97938.94;5071304;28;20288;-42
2022/09/15 02:04:06;;;;;;;;;;;;;;;19.45;100.00;97949.78;5074116;28;20025;-42
2022/09/15 02:06:43;;;;;;;;;;;;;;;19.27;100.00;97952.19;5053626;28;20470;-42
2022/09/15 02:09:08;;;;;;;;;;;;;;;19.17;100.00;97949.53;5055209;28;20367;-42
2022/09/15 02:11:34;;;;;;;;;;;;;;;19.16;100.00;97954.91;5073751;28;19930;-42
2022/09/15 02:14:10;;;;;;;;;;;;;;;19.21;100.00;97945.69;5054843;28;19925;-42
2022/09/15 02:16:35;;;;;;;;;;;;;;;19.37;100.00;97947.03;5073615;28;20018;-42
2022/09/15 02:19:09;;;;;;;;;;;;;;;19.49;100.00;97939.94;5073179;28;20453;-42
2022/09/15 02:21:40;;;;;;;;;;;;;;;19.63;100.00;97937.75;5071960;28;19931;-42
2022/09/15 02:24:06;;;;;;;;;;;;;;;19.59;100.00;97935.56;5056941;28;20660;-42
2022/09/15 02:26:32;;;;;;;;;;;;;;;19.59;100.00;97930.31;5054629;28;19996;-42
2022/09/15 02:28:58;;;;;;;;;;;;;;;19.35;100.00;97938.50;5053335;28;20016;-42
2022/09/15 02:31:23;;;;;;;;;;;;;;;19.51;100.00;97943.25;5074042;28;19920;-42
2022/09/15 02:33:50;;;;;;;;;;;;;;;19.63;100.00;97937.75;5054202;28;20403;-42
2022/09/15 02:36:18;;;;;;;;;;;;;;;19.48;100.00;97946.94;5055670;28;19920;-42
2022/09/15 02:38:45;;;;;;;;;;;;;;;19.19;100.00;97945.00;5051142;28;19920;-42
2022/09/15 02:41:12;;;;;;;;;;;;;;;19.06;100.00;97954.00;5073916;28;19947;-42
2022/09/15 02:43:48;;;;;;;;;;;;;;;19.32;100.00;97954.44;5073323;28;19959;-42
2022/09/15 02:46:14;;;;;;;;;;;;;;;19.34;100.00;97958.56;5073206;28;20450;-42
2022/09/15 02:48:39;;;;;;;;;;;;;;;19.50;100.00;97952.88;5055367;28;19958;-42
2022/09/15 02:51:05;;;;;;;;;;;;;;;19.50;100.00;97952.88;5073962;28;20519;-42
2022/09/15 02:53:30;;;;;;;;;;;;;;;19.50;100.00;97952.88;5073238;28;19931;-42
2022/09/15 02:55:56;;;;;;;;;;;;;;;19.49;100.00;97955.59;5073286;28;19920;-42
2022/09/15 02:58:22;;;;;;;;;;;;;;;19.02;100.00;97963.84;5074609;28;20296;-42
2022/09/15 03:00:47;;;;;;;;;;;;;;;19.00;100.00;97964.00;5073096;28;19921;-42
2022/09/15 03:03:14;;;;;;;;;;;;;;;19.31;100.00;97957.97;5074487;28;20026;-42
2022/09/15 03:05:39;;;;;;;;;;;;;;;19.32;100.00;97947.41;5073336;28;19928;-42
2022/09/15 03:08:04;;;;;;;;;;;;;;;19.44;100.00;97938.53;5073547;28;21060;-42
2022/09/15 03:10:31;;;;;;;;;;;;;;;19.35;100.00;97943.72;5056119;28;19947;-42
2022/09/15 03:12:56;;;;;;;;;;;;;;;19.60;100.00;97945.88;5066854;28;19920;-42
2022/09/15 03:15:22;;;;;;;;;;;;;;;19.52;100.00;97950.91;5071768;28;20879;-42
2022/09/15 03:17:48;;;;;;;;;;;;;;;19.08;100.00;97947.69;5073629;28;19923;-42
2022/09/15 03:20:14;;;;;;;;;;;;;;;19.25;100.00;97950.66;5070901;28;19920;-42
2022/09/15 03:22:40;;;;;;;;;;;;;;;19.29;100.00;97962.50;5052496;28;20414;-42
2022/09/15 03:25:06;;;;;;;;;;;;;;;19.30;100.00;97957.16;5064955;28;19951;-42
2022/09/15 03:27:31;;;;;;;;;;;;;;;19.36;100.00;97961.88;5071353;28;19927;-42
2022/09/15 03:29:57;;;;;;;;;;;;;;;19.14;100.00;97960.22;5072722;28;21244;-42
2022/09/15 03:32:22;;;;;;;;;;;;;;;19.23;100.00;97963.84;5074506;28;20002;-42
2022/09/15 03:34:47;;;;;;;;;;;;;;;19.31;100.00;97963.19;5075234;28;19923;-42
2022/09/15 03:37:13;;;;;;;;;;;;;;;19.34;100.00;97958.56;5073946;28;19920;-42
2022/09/15 03:39:38;;;;;;;;;;;;;;;19.44;100.00;97958.59;5073067;28;19987;-42
2022/09/15 03:42:03;;;;;;;;;;;;;;;19.46;100.00;97964.53;5074344;28;20109;-42
2022/09/15 03:44:29;;;;;;;;;;;;;;;19.19;100.00;97970.28;5073226;28;19962;-42
2022/09/15 03:46:54;;;;;;;;;;;;;;;19.15;100.00;97969.69;5073873;28;19969;-42
2022/09/15 03:49:19;;;;;;;;;;;;;;;19.48;100.00;97970.44;5073922;28;20038;-42
2022/09/15 03:51:44;;;;;;;;;;;;;;;19.57;100.00;97974.88;5072546;28;19970;-42
2022/09/15 03:54:10;;;;;;;;;;;;;;;19.43;100.00;97964.75;5073835;28;19920;-42
2022/09/15 03:56:35;;;;;;;;;;;;;;;19.53;100.00;97970.88;5071320;28;20393;-42
2022/09/15 03:59:01;;;;;;;;;;;;;;;19.49;100.00;97966.03;5073230;28;19920;-43
2022/09/15 04:01:26;;;;;;;;;;;;;;;19.47;100.00;97968.78;5072865;28;19927;-41
2022/09/15 04:03:51;;;;;;;;;;;;;;;19.34;100.00;97965.53;5073621;28;19912;-41
2022/09/15 04:06:17;;;;;;;;;;;;;;;18.63;100.00;97968.75;5071582;28;19933;-42
2022/09/15 04:08:43;;;;;;;;;;;;;;;19.02;100.00;97969.91;5072202;28;19919;-42
2022/09/15 04:11:09;;;;;;;;;;;;;;;19.39;100.00;97966.81;5073092;28;20733;-41
2022/09/15 04:13:35;;;;;;;;;;;;;;;19.53;100.00;97965.66;5071150;28;19959;-42
2022/09/15 04:16:01;;;;;;;;;;;;;;;19.40;100.00;97967.63;5073086;28;20518;-42
2022/09/15 04:18:27;;;;;;;;;;;;;;;19.55;100.00;97971.56;5072550;28;19920;-42
2022/09/15 04:20:52;;;;;;;;;;;;;;;19.52;100.00;97965.75;5054283;28;19920;-42
2022/09/15 04:23:17;;;;;;;;;;;;;;;19.51;100.00;97970.16;5070548;28;19955;-42
2022/09/15 04:25:42;;;;;;;;;;;;;;;19.49;100.00;97972.09;5072549;28;19920;-42
2022/09/15 04:28:08;;;;;;;;;;;;;;;19.43;100.00;97964.75;5072676;28;20001;-41
2022/09/15 04:30:33;;;;;;;;;;;;;;;19.38;100.00;97972.97;5072948;28;19916;-42
2022/09/15 04:32:58;;;;;;;;;;;;;;;19.50;100.00;97980.72;5072735;28;19923;-42
2022/09/15 04:35:23;;;;;;;;;;;;;;;19.39;100.00;97977.25;5072987;28;19923;-41
2022/09/15 04:37:48;;;;;;;;;;;;;;;19.56;100.00;97977.59;5071960;28;19927;-41
2022/09/15 04:40:14;;;;;;;;;;;;;;;19.50;100.00;97968.53;5071420;28;19927;-41
2022/09/15 04:42:39;;;;;;;;;;;;;;;19.72;100.00;97969.31;5068537;28;20192;-42
2022/09/15 04:45:06;;;;;;;;;;;;;;;19.68;100.00;97980.94;5073486;28;19916;-42
2022/09/15 04:47:31;;;;;;;;;;;;;;;19.52;100.00;97965.75;5071540;28;19930;-42
2022/09/15 04:49:56;;;;;;;;;;;;;;;19.93;100.00;97971.84;5074632;28;20295;-42
2022/09/15 04:52:21;;;;;;;;;;;;;;;19.74;100.00;97965.63;5071209;28;20734;-42
2022/09/15 04:54:47;;;;;;;;;;;;;;;19.79;100.00;97968.66;5073540;28;20333;-42
2022/09/15 04:57:12;;;;;;;;;;;;;;;19.72;100.00;97971.94;5071879;28;20540;-42
2022/09/15 04:59:37;;;;;;;;;;;;;;;19.59;100.00;97975.56;5072875;28;19924;-42
2022/09/15 05:02:02;;;;;;;;;;;;;;;19.77;100.00;97972.34;5072307;28;19923;-42
2022/09/15 05:04:28;;;;;;;;;;;;;;;19.59;100.00;97977.34;5071861;28;19924;-42
2022/09/15 05:06:53;;;;;;;;;;;;;;;19.85;100.00;97967.31;5053786;28;20757;-42
2022/09/15 05:09:18;;;;;;;;;;;;;;;19.76;100.00;97973.31;5071919;28;19920;-42
2022/09/15 05:11:43;;;;;;;;;;;;;;;19.64;100.00;97969.97;5068943;28;19925;-42
2022/09/15 05:14:09;;;;;;;;;;;;;;;19.78;100.00;97967.00;5070570;28;19927;-42
2022/09/15 05:16:34;;;;;;;;;;;;;;;19.64;100.00;97965.56;5070981;28;19924;-42
2022/09/15 05:19:00;;;;;;;;;;;;;;;19.80;100.00;97970.31;5071846;28;19927;-42
2022/09/15 05:21:26;;;;;;;;;;;;;;;19.82;100.00;97970.19;5072383;28;19916;-43
2022/09/15 05:23:51;;;;;;;;;;;;;;;19.79;100.00;97973.88;5071000;28;19920;-42
2022/09/15 05:26:17;;;;;;;;;;;;;;;19.79;100.00;97973.06;5070133;28;19924;-43
2022/09/15 05:28:42;;;;;;;;;;;;;;;19.89;100.00;97979.16;5070437;28;19927;-42
2022/09/15 05:31:09;;;;;;;;;;;;;;;20.04;100.00;97971.75;5071207;28;19944;-42
2022/09/15 05:33:34;;;;;;;;;;;;;;;20.02;100.00;97978.91;5071777;28;19923;-42
2022/09/15 05:36:00;;;;;;;;;;;;;;;20.04;100.00;97983.03;5071135;28;19971;-42
2022/09/15 05:38:27;;;;;;;;;;;;;;;19.88;100.00;97980.09;5071664;28;19938;-42
2022/09/15 05:40:52;;;;;;;;;;;;;;;19.62;100.00;97985.75;5073116;28;20418;-42
2022/09/15 05:43:18;;;;;;;;;;;;;;;19.42;100.00;97991.84;5053827;28;19916;-42
2022/09/15 05:45:43;;;;;;;;;;;;;;;19.59;100.00;97991.25;5070995;28;19921;-42
2022/09/15 05:48:09;;;;;;;;;;;;;;;19.01;100.00;98003.97;5072748;28;20323;-42
2022/09/15 05:50:34;;;;;;;;;;;;;;;18.62;100.00;97997.59;5071213;28;20317;-42
2022/09/15 05:53:00;;;;;;;;;;;;;;;18.55;100.00;98002.47;5071274;28;19924;-42
2022/09/15 05:55:25;;;;;;;;;;;;;;;18.77;100.00;97986.75;5070486;28;19976;-42
2022/09/15 05:57:50;;;;;;;;;;;;;;;18.67;100.00;97996.25;5070893;28;19924;-42
2022/09/15 06:00:16;;;;;;;;;;;;;;;18.64;100.00;97987.88;5072838;28;20004;-42
2022/09/15 06:02:41;;;;;;;;;;;;;;;18.07;100.00;97993.22;5072295;28;19916;-42
2022/09/15 06:05:06;;;;;;;;;;;;;;;18.18;100.00;97992.38;5070751;28;19920;-42
2022/09/15 06:07:32;;;;;;;;;;;;;;;18.81;100.00;97993.38;5071718;28;19916;-42
2022/09/15 06:09:57;;;;;;;;;;;;;;;18.63;100.00;98000.06;5072759;28;20869;-42
2022/09/15 06:12:22;;;;;;;;;;;;;;;18.32;100.00;97997.31;5071764;28;19927;-42
2022/09/15 06:14:49;;;;;;;;;;;;;;;17.83;100.00;98006.38;5074174;28;20453;-42
2022/09/15 06:17:19;;;;;;;;;;;;;;;18.09;100.00;97998.31;5055273;28;20053;-42
2022/09/15 06:19:44;;;;;;;;;;;;;;;18.09;100.00;97999.16;5076491;28;19916;-42
2022/09/15 06:22:09;;;;;;;;;;;;;;;18.35;100.00;97998.84;5075231;28;19981;-42
2022/09/15 06:24:35;;;;;;;;;;;;;;;18.22;100.00;97999.00;5074824;28;20039;-42
2022/09/15 06:27:00;;;;;;;;;;;;;;;18.08;100.00;98009.69;5055872;28;20039;-42
2022/09/15 06:29:25;;;;;;;;;;;;;;;17.43;100.00;98008.59;5074832;28;19922;-42
2022/09/15 06:31:50;;;;;;;;;;;;;;;18.24;100.00;98009.31;5075605;28;19920;-42
2022/09/15 06:34:16;;;;;;;;;;;;;;;17.53;100.00;98012.97;5072949;28;19925;-42
2022/09/15 06:36:41;;;;;;;;;;;;;;;17.95;100.00;98015.88;5074111;28;20004;-42
2022/09/15 06:39:07;;;;;;;;;;;;;;;17.94;100.00;98039.41;5074818;28;20013;-42
2022/09/15 06:41:32;;;;;;;;;;;;;;;18.33;100.00;98030.25;5074545;28;20025;-42
2022/09/15 06:43:58;;;;;;;;;;;;;;;18.16;100.00;98028.16;5073898;28;19916;-42
2022/09/15 06:46:24;;;;;;;;;;;;;;;17.94;100.00;98039.41;5072523;28;19967;-42
2022/09/15 06:48:50;;;;;;;;;;;;;;;17.74;100.00;98043.53;5055988;28;19947;-42
2022/09/15 06:51:16;;;;;;;;;;;;;;;17.43;100.00;98040.66;5054863;28;19920;-42
2022/09/15 06:53:42;;;;;;;;;;;;;;;18.15;100.00;98047.31;5074238;28;20033;-42
2022/09/15 06:56:09;;;;;;;;;;;;;;;18.41;100.00;98044.47;5073606;28;20419;-42
2022/09/15 06:58:34;;;;;;;;;;;;;;;18.25;100.00;98040.47;5073226;28;20452;-42
2022/09/15 07:01:01;;;;;;;;;;;;;;;18.04;100.00;98057.75;5039436;28;20105;-42
2022/09/15 07:03:26;;;;;;;;;;;;;;;17.91;100.00;98061.31;5075108;28;19927;-42
2022/09/15 07:05:52;;;;;;;;;;;;;;;18.04;100.00;98055.16;5056291;28;20647;-42
2022/09/15 07:08:17;;;;;;;;;;;;;;;18.41;100.00;98060.94;5073358;28;19969;-42
2022/09/15 07:10:43;;;;;;;;;;;;;;;18.49;100.00;98063.75;5074024;28;20219;-42
2022/09/15 07:13:09;;;;;;;;;;;;;;;18.48;100.00;98059.50;5075218;28;20051;-42
2022/09/15 07:15:34;;;;;;;;;;;;;;;18.51;100.00;98058.41;5074196;28;19921;-42
2022/09/15 07:17:59;;;;;;;;;;;;;;;18.56;100.00;98067.50;5074524;28;19963;-42
2022/09/15 07:20:24;;;;;;;;;;;;;;;18.01;100.00;98065.81;5073439;28;19962;-42
2022/09/15 07:22:50;;;;;;;;;;;;;;;18.25;100.00;98076.13;5074272;28;19924;-42
2022/09/15 07:25:15;;;;;;;;;;;;;;;18.10;100.00;98078.97;5072020;28;19977;-42
2022/09/15 07:27:40;;;;;;;;;;;;;;;18.09;100.00;98082.53;5072343;28;19925;-42
2022/09/15 07:30:07;;;;;;;;;;;;;;;18.14;100.00;98079.56;5072502;28;19966;-42
2022/09/15 07:32:32;;;;;;;;;;;;;;;18.05;100.00;98077.66;5057187;28;19912;-42
2022/09/15 07:34:58;;;;;;;;;;;;;;;17.90;100.00;98085.72;5073671;28;19991;-42
2022/09/15 07:37:23;;;;;;;;;;;;;;;17.93;100.00;98095.91;5072340;28;19961;-42
2022/09/15 07:39:48;;;;;;;;;;;;;;;18.11;100.00;98087.59;5072585;28;19920;-42
2022/09/15 07:42:14;;;;;;;;;;;;;;;18.34;100.00;98085.84;5073482;28;19961;-42
2022/09/15 07:44:39;;;;;;;;;;;;;;;17.91;100.00;98096.97;5072532;28;20437;-42
2022/09/15 07:47:04;;;;;;;;;;;;;;;18.84;100.00;98086.22;5072488;28;20655;-42
2022/09/15 07:49:29;;;;;;;;;;;;;;;18.20;100.00;98092.13;5071391;28;19949;-42
2022/09/15 07:51:55;;;;;;;;;;;;;;;18.73;100.00;98094.03;5072378;28;20355;-42
2022/09/15 07:54:20;;;;;;;;;;;;;;;19.01;100.00;98090.06;5072688;28;20320;-42
2022/09/15 07:56:45;;;;;;;;;;;;;;;19.09;100.00;98085.06;5072082;28;20405;-42
2022/09/15 07:59:11;;;;;;;;;;;;;;;18.76;100.00;98094.63;5072375;28;20409;-42
2022/09/15 08:01:36;;;;;;;;;;;;;;;18.50;100.00;98099.31;5052881;28;19920;-42
2022/09/15 08:04:02;;;;;;;;;;;;;;;18.81;100.00;98097.69;5060281;28;19946;-42
2022/09/15 08:06:27;;;;;;;;;;;;;;;18.51;100.00;98089.69;5071808;28;20418;-42
2022/09/15 08:08:52;;;;;;;;;;;;;;;18.39;100.00;98097.53;5072243;28;20400;-43
2022/09/15 08:11:18;;;;;;;;;;;;;;;18.96;100.00;98094.84;5071526;28;19919;-42
2022/09/15 08:13:44;;;;;;;;;;;;;;;18.49;100.00;98105.47;5072407;28;19927;-42
2022/09/15 08:16:13;;;;;;;;;;;;;;;19.16;100.00;98101.88;5072846;28;19916;-42
2022/09/15 08:18:40;;;;;;;;;;;;;;;18.87;100.00;98106.00;5072509;28;19916;-42
2022/09/15 08:21:06;;;;;;;;;;;;;;;19.72;100.00;98107.78;5071342;28;19927;-42
2022/09/15 08:23:31;;;;;;;;;;;;;;;19.48;100.00;98105.38;4992466;28;1792056;-42
2022/09/15 08:25:56;;;;;;;;;;;;;;;20.20;100.00;98104.56;5072476;28;20732;-42
2022/09/15 08:28:22;;;;;;;;;;;;;;;20.40;100.00;98101.06;5072103;28;20475;-42
2022/09/15 08:30:47;;;;;;;;;;;;;;;21.20;100.00;98101.88;5070793;28;19920;-42
2022/09/15 08:33:12;;;;;;;;;;;;;;;21.51;100.00;98101.75;5071029;28;19966;-42
2022/09/15 08:35:37;;;;;;;;;;;;;;;21.76;100.00;98107.34;5071467;28;20002;-42
2022/09/15 08:38:03;;;;;;;;;;;;;;;21.25;100.00;98109.31;5072387;28;19921;-42
2022/09/15 08:40:31;;;;;;;;;;;;;;;21.79;100.00;98113.13;5071544;28;19930;-42
2022/09/15 08:42:57;;;;;;;;;;;;;;;22.11;100.00;98106.69;5054276;28;19919;-42
2022/09/15 08:45:27;;;;;;;;;;;;;;;21.41;100.00;98114.03;5072740;28;20010;-42
2022/09/15 08:47:54;;;;;;;;;;;;;;;21.34;100.00;98118.13;5054451;28;19922;-42
2022/09/15 08:50:23;;;;;;;;;;;;;;;21.17;100.00;98111.81;5054204;28;19920;-42
2022/09/15 08:52:52;;;;;;;;;;;;;;;20.40;100.00;98116.75;5071678;28;20292;-42
2022/09/15 08:55:23;;;;;;;;;;;;;;;20.00;100.00;98125.41;5073042;28;19981;-42
2022/09/15 08:57:51;;;;;;;;;;;;;;;20.19;100.00;98127.28;5071619;28;19920;-42
2022/09/15 09:00:16;;;;;;;;;;;;;;;20.41;100.00;98118.41;5072341;28;19920;-42
2022/09/15 09:03:00;;;;;;;;;;;;;;;21.39;100.00;98121.16;5072086;28;19917;-42
2022/09/15 09:05:29;;;;;;;;;;;;;;;21.40;100.00;98118.44;5072261;28;19915;-42
2022/09/15 09:08:09;;;;;;;;;;;;;;;21.59;100.00;98112.34;5053353;28;20528;-42
2022/09/15 09:10:34;;;;;;;;;;;;;;;21.36;100.00;98116.22;5072832;28;20010;-42
2022/09/15 09:13:00;;;;;;;;;;;;;;;21.86;100.00;98113.41;5071494;28;19924;-42
2022/09/15 09:15:44;;;;;;;;;;;;;;;21.49;100.00;98122.03;5052945;28;20293;-51
2022/09/15 09:18:12;;;;;;;;;;;;;;;20.66;100.00;98129.38;5070658;28;19970;-49
2022/09/15 09:20:46;;;;;;;;;;;;;;;20.53;100.00;98131.41;5072063;28;19916;-51
2022/09/15 09:23:12;;;;;;;;;;;;;;;20.01;100.00;98134.88;5073422;28;20297;-50
2022/09/15 09:25:39;;;;;;;;;;;;;;;20.16;100.00;98132.78;5054068;28;19967;-50
2022/09/15 09:28:05;;;;;;;;;;;;;;;20.11;100.00;98134.94;5070938;28;19924;-49
2022/09/15 09:30:31;;;;;;;;;;;;;;;20.73;100.00;98135.72;5072318;28;19926;-49
2022/09/15 09:33:04;;;;;;;;;;;;;;;20.77;100.00;98139.72;5054859;28;19916;-48
2022/09/15 09:35:33;;;;;;;;;;;;;;;20.60;100.00;98140.38;5054799;28;19969;-50
2022/09/15 09:37:58;;;;;;;;;;;;;;;20.57;100.00;98140.63;5070184;28;19920;-50
2022/09/15 09:40:24;;;;;;;;;;;;;;;20.62;100.00;98134.06;5073061;28;19963;-48
2022/09/15 09:42:49;;;;;;;;;;;;;;;20.41;100.00;98133.25;5053650;28;20501;-48
2022/09/15 09:45:15;;;;;;;;;;;;;;;20.15;100.00;98130.28;5072243;28;19972;-48
2022/09/15 09:47:40;;;;;;;;;;;;;;;19.69;100.00;98131.56;5070497;28;19974;-47
2022/09/15 09:50:24;;;;;;;;;;;;;;;19.50;100.00;98140.88;5073697;28;19972;-47
2022/09/15 09:52:49;;;;;;;;;;;;;;;19.58;100.00;98137.63;5076350;28;19965;-48
2022/09/15 09:55:19;;;;;;;;;;;;;;;19.32;100.00;98137.19;5076805;28;19919;-47
2022/09/15 09:57:44;;;;;;;;;;;;;;;19.46;100.00;98131.63;5075043;28;19927;-49
2022/09/15 10:00:28;;;;;;;;;;;;;;;19.46;100.00;98139.47;5075914;28;20289;-49
2022/09/15 10:02:54;;;;;;;;;;;;;;;19.39;100.00;98133.09;5074917;28;20284;-47
2022/09/15 10:05:19;;;;;;;;;;;;;;;19.92;100.00;98127.81;5076052;28;19947;-49
2022/09/15 10:07:44;;;;;;;;;;;;;;;20.28;100.00;98130.88;5076464;28;20007;-47
2022/09/15 10:10:22;;;;;;;;;;;;;;;20.27;100.00;98132.69;5076332;28;20019;-49
2022/09/15 10:12:47;;;;;;;;;;;;;;;20.17;100.00;98128.38;5057168;28;19920;-47
2022/09/15 10:15:22;;;;;;;;;;;;;;;19.69;100.00;98132.38;5074687;28;19920;-47
2022/09/15 10:17:48;;;;;;;;;;;;;;;20.21;100.00;98127.97;5075219;28;19916;-49
2022/09/15 10:20:23;;;;;;;;;;;;;;;20.51;100.00;98128.91;5072661;28;19923;-47
2022/09/15 10:22:48;;;;;;;;;;;;;;;21.21;100.00;98114.03;5063746;28;19927;-48
2022/09/15 10:25:19;;;;;;;;;;;;;;;21.82;100.00;98118.09;5074193;28;20527;-48
2022/09/15 10:28:00;;;;;;;;;;;;;;;20.69;100.00;98123.88;5068019;28;19998;-47
2022/09/15 10:30:25;;;;;;;;;;;;;;;20.82;100.00;98129.69;5055497;28;20011;-47
2022/09/15 10:32:50;;;;;;;;;;;;;;;20.81;100.00;98133.25;5074086;28;20722;-49
2022/09/15 10:35:19;;;;;;;;;;;;;;;19.80;100.00;98121.84;5051727;28;19922;-50
2022/09/15 10:37:50;;;;;;;;;;;;;;;20.05;100.00;98125.84;5071116;28;19985;-50
2022/09/15 10:40:34;;;;;;;;;;;;;;;20.76;100.00;98127.63;5073404;28;20049;-48
2022/09/15 10:43:18;;;;;;;;;;;;;;;21.00;100.00;98115.94;5071566;28;19920;-51
2022/09/15 10:45:45;;;;;;;;;;;;;;;20.73;100.00;98124.44;5072839;28;20435;-48
2022/09/15 10:48:21;;;;;;;;;;;;;;;20.59;100.00;98133.47;5056902;28;20360;-49
2022/09/15 10:50:49;;;;;;;;;;;;;;;20.26;100.00;98138.03;5054869;28;19920;-49
2022/09/15 10:53:27;;;;;;;;;;;;;;;20.52;100.00;98127.09;5075265;28;19920;-48
2022/09/15 10:56:11;;;;;;;;;;;;;;;21.06;100.00;98123.25;5056703;28;19920;-50
2022/09/15 10:58:47;;;;;;;;;;;;;;;20.45;100.00;98129.41;5075226;28;19972;-47
2022/09/15 11:01:12;;;;;;;;;;;;;;;19.82;100.00;98134.81;5075251;28;19916;-47
2022/09/15 11:03:43;;;;;;;;;;;;;;;20.05;100.00;98141.50;5074881;28;19916;-47
2022/09/15 11:06:14;;;;;;;;;;;;;;;19.96;100.00;98137.06;5074566;28;19930;-51
2022/09/15 11:08:41;;;;;;;;;;;;;;;19.94;100.00;98136.38;5073751;28;19920;-48
2022/09/15 11:11:12;;;;;;;;;;;;;;;20.44;100.00;98126.00;5073804;28;19920;-48
2022/09/15 11:13:41;;;;;;;;;;;;;;;19.01;100.00;98142.25;5074897;28;19916;-50
2022/09/15 11:16:07;;;;;;;;;;;;;;;19.20;100.00;98147.66;5071138;28;20445;-49
2022/09/15 11:18:35;;;;;;;;;;;;;;;18.32;100.00;98161.53;5073265;28;19926;-49
2022/09/15 11:21:00;;;;;;;;;;;;;;;18.31;100.00;98167.66;5075106;28;19959;-49
2022/09/15 11:23:39;;;;;;;;;;;;;;;18.64;100.00;98173.03;5074179;28;20026;-48
2022/09/15 11:26:33;;;;;;;;;;;;;;;19.09;100.00;98162.50;5053795;28;19926;-47
2022/09/15 11:29:02;;;;;;;;;;;;;;;19.98;100.00;98156.06;5000488;28;19926;-50
2022/09/15 11:31:38;;;;;;;;;;;;;;;19.54;100.00;98157.09;5054657;28;19920;-49
2022/09/15 11:34:13;;;;;;;;;;;;;;;19.55;100.00;98159.59;5057405;28;20610;-47
2022/09/15 11:36:38;;;;;;;;;;;;;;;20.09;100.00;98167.38;5070414;28;19921;-48
2022/09/15 11:39:10;;;;;;;;;;;;;;;20.13;100.00;98158.34;5071891;28;20408;-49
2022/09/15 11:41:37;;;;;;;;;;;;;;;20.29;100.00;98157.84;5073813;28;19917;-47
2022/09/15 11:44:06;;;;;;;;;;;;;;;20.45;100.00;98151.16;5039971;28;19923;-48
2022/09/15 11:46:51;;;;;;;;;;;;;;;20.20;100.00;98154.22;5073220;28;20005;-50
2022/09/15 11:49:21;;;;;;;;;;;;;;;20.89;100.00;98156.97;5055435;28;19927;-50
2022/09/15 11:51:50;;;;;;;;;;;;;;;21.37;100.00;98144.91;5070918;28;19939;-48
2022/09/15 11:54:24;;;;;;;;;;;;;;;21.98;100.00;98146.31;5043601;28;19920;-49
2022/09/15 11:56:49;;;;;;;;;;;;;;;21.46;100.00;98149.34;5040880;28;20378;-42
2022/09/15 11:59:20;;;;;;;;;;;;;;;21.52;100.00;98153.19;5074328;28;19916;-42
2022/09/15 12:01:47;;;;;;;;;;;;;;;22.03;100.00;98141.50;5044029;28;19929;-42
2022/09/15 12:04:15;;;;;;;;;;;;;;;21.93;100.00;98140.69;5054279;28;19931;-42
2022/09/15 12:06:51;;;;;;;;;;;;;;;21.52;100.00;98150.56;5053523;28;19924;-42
2022/09/15 12:09:17;;;;;;;;;;;;;;;22.66;100.00;98132.97;5051799;28;20392;-42
2022/09/15 12:11:46;;;;;;;;;;;;;;;22.08;100.00;98136.66;5070968;28;19927;-42
2022/09/15 12:14:25;;;;;;;;;;;;;;;21.80;100.00;98140.97;5056016;28;19916;-42
2022/09/15 12:16:50;;;;;;;;;;;;;;;22.26;100.00;98138.53;5054541;28;19916;-42
2022/09/15 12:19:16;;;;;;;;;;;;;;;21.50;100.00;98140.19;5053858;28;20038;-42
2022/09/15 12:21:50;;;;;;;;;;;;;;;22.07;100.00;98142.03;5072041;28;19955;-42
2022/09/15 12:24:22;;;;;;;;;;;;;;;21.76;100.00;98128.31;5054875;28;20409;-42
2022/09/15 12:26:47;;;;;;;;;;;;;;;23.02;100.00;98126.97;5037058;28;20526;-42
2022/09/15 12:29:36;;;;;;;;;;;;;;;23.21;100.00;98124.19;5067762;28;20023;-42
2022/09/15 12:32:16;;;;;;;;;;;;;;;22.96;100.00;98134.41;5064776;28;19924;-42
2022/09/15 12:34:54;;;;;;;;;;;;;;;22.49;100.00;98146.88;5071011;28;19923;-42
2022/09/15 12:37:19;;;;;;;;;;;;;;;21.55;100.00;98146.81;5067944;28;19996;-42